ETD1YB KBOS-OMAA
Flight info
| Callsign | ETD1YB |
|---|---|
| Flight time | N/A |
| Altitude | 33000 |
| Route | CELTK7 CELTK DCT FRILL DCT TUSKY N223B OMSAT/M085F330 DCT 47N050W 4730N04000W 47N030W 4530N02000W DCT RETEN/N0493F330 DCT EPOPO DCT INKIT DCT BARDI DCT RIDAV DCT DIPOL DCT NVS DCT NANDO DCT FENXE DCT MABUX DCT RETBA DCT MOPIR DCT LASPO DCT LUXUR UM134 ANB UA411 MORJA DCT SONAK DCT DINUX DCT AGARI DCT ARLOS DCT SALUN N705 MMA P751 DASUM Y234 FYM M872 BDB Y214 RAPMA DCT KUVSO DCT KATIT DCT DANUX DCT TANSU G783 VAVIM P899 ROVOS |
| Aircraft | A35K/H-SDE2E3GHIJ3J4J5LM1ORWXY/LB1D1 |
Departure
| Time | N/A |
|---|---|
| Airport | Boston Logan International Airport (KBOS) |
Arrival
| Time | 2026-04-29 07:06 |
|---|---|
| Airport | Zayed International Airport (OMAA) |
| Time | Latitude | Longitude | Altitude | Speed | Heading |
|---|---|---|---|---|---|
| 2026-04-29 04:58 | 28.10608 | 31.96107 | 33021 ft | 561 kts | 136° |
| 2026-04-29 04:59 | 28.07966 | 31.99381 | 33018 ft | 561 kts | 136° |
| 2026-04-29 04:59 | 28.02980 | 32.06203 | 33021 ft | 566 kts | 124° |
| 2026-04-29 05:00 | 27.99011 | 32.13903 | 33024 ft | 567 kts | 121° |
| 2026-04-29 05:00 | 27.95246 | 32.21754 | 33023 ft | 568 kts | 120° |
| 2026-04-29 05:01 | 27.91497 | 32.29630 | 33024 ft | 568 kts | 120° |
| 2026-04-29 05:01 | 27.87750 | 32.37428 | 33015 ft | 568 kts | 121° |
| 2026-04-29 05:02 | 27.83951 | 32.45272 | 33033 ft | 569 kts | 121° |
| 2026-04-29 05:02 | 27.80141 | 32.53114 | 33027 ft | 569 kts | 121° |
| 2026-04-29 05:03 | 27.76966 | 32.59640 | 33008 ft | 569 kts | 121° |
| 2026-04-29 05:03 | 27.72521 | 32.68767 | 33017 ft | 570 kts | 121° |
| 2026-04-29 05:04 | 27.69336 | 32.75292 | 33013 ft | 570 kts | 121° |
| 2026-04-29 05:04 | 27.65504 | 32.83130 | 33000 ft | 570 kts | 122° |
| 2026-04-29 05:05 | 27.61658 | 32.90982 | 32997 ft | 570 kts | 122° |
| 2026-04-29 05:05 | 27.57825 | 32.98795 | 32990 ft | 570 kts | 122° |
| 2026-04-29 05:06 | 27.54007 | 33.06562 | 32983 ft | 569 kts | 122° |
| 2026-04-29 05:06 | 27.50169 | 33.14359 | 32985 ft | 569 kts | 122° |
| 2026-04-29 05:07 | 27.46318 | 33.22164 | 32980 ft | 570 kts | 122° |
| 2026-04-29 05:07 | 27.42459 | 33.29971 | 32974 ft | 570 kts | 122° |
| 2026-04-29 05:08 | 27.38595 | 33.37776 | 32970 ft | 570 kts | 122° |
| 2026-04-29 05:08 | 27.34730 | 33.45578 | 32945 ft | 570 kts | 123° |
| 2026-04-29 05:09 | 27.30848 | 33.53385 | 32958 ft | 572 kts | 123° |
| 2026-04-29 05:09 | 27.26984 | 33.61136 | 32960 ft | 572 kts | 123° |
| 2026-04-29 05:10 | 27.23090 | 33.68939 | 32965 ft | 572 kts | 123° |
| 2026-04-29 05:10 | 27.19191 | 33.76743 | 32966 ft | 572 kts | 123° |
| 2026-04-29 05:11 | 27.15863 | 33.84908 | 32967 ft | 576 kts | 115° |
| 2026-04-29 05:11 | 27.12858 | 33.93257 | 32963 ft | 576 kts | 114° |
| 2026-04-29 05:12 | 27.09911 | 34.01618 | 32951 ft | 576 kts | 114° |
| 2026-04-29 05:12 | 27.06967 | 34.09926 | 32942 ft | 576 kts | 114° |
| 2026-04-29 05:13 | 27.03982 | 34.18285 | 32927 ft | 576 kts | 115° |
| 2026-04-29 05:13 | 27.00993 | 34.26624 | 32925 ft | 576 kts | 115° |
| 2026-04-29 05:14 | 26.97994 | 34.34969 | 32920 ft | 577 kts | 115° |
| 2026-04-29 05:14 | 26.94988 | 34.43314 | 32917 ft | 576 kts | 115° |
| 2026-04-29 05:15 | 26.91979 | 34.51652 | 32913 ft | 577 kts | 115° |
| 2026-04-29 05:15 | 26.88978 | 34.59952 | 32911 ft | 577 kts | 115° |
| 2026-04-29 05:16 | 26.85956 | 34.68293 | 32909 ft | 577 kts | 115° |
| 2026-04-29 05:16 | 26.82931 | 34.76622 | 32905 ft | 577 kts | 115° |
| 2026-04-29 05:17 | 26.79901 | 34.84950 | 32907 ft | 577 kts | 116° |
| 2026-04-29 05:17 | 26.76870 | 34.93259 | 32905 ft | 577 kts | 116° |
| 2026-04-29 05:18 | 26.73838 | 35.01574 | 32904 ft | 577 kts | 116° |
| 2026-04-29 05:18 | 26.70801 | 35.09869 | 32896 ft | 576 kts | 116° |
| 2026-04-29 05:19 | 26.67778 | 35.18107 | 32891 ft | 576 kts | 116° |
| 2026-04-29 05:19 | 26.64732 | 35.26394 | 32884 ft | 576 kts | 116° |
| 2026-04-29 05:20 | 26.61686 | 35.34668 | 32896 ft | 575 kts | 116° |
| 2026-04-29 05:20 | 26.58637 | 35.42929 | 32890 ft | 575 kts | 116° |
| 2026-04-29 05:21 | 26.55584 | 35.51175 | 32881 ft | 574 kts | 117° |
| 2026-04-29 05:21 | 26.52480 | 35.59336 | 32892 ft | 573 kts | 118° |
| 2026-04-29 05:22 | 26.49336 | 35.67501 | 32890 ft | 572 kts | 118° |
| 2026-04-29 05:22 | 26.46191 | 35.75680 | 32877 ft | 573 kts | 118° |
| 2026-04-29 05:23 | 26.43057 | 35.83846 | 32894 ft | 570 kts | 118° |
| 2026-04-29 05:23 | 26.39936 | 35.91967 | 32895 ft | 569 kts | 118° |
| 2026-04-29 05:24 | 26.36811 | 36.00077 | 32895 ft | 569 kts | 118° |
| 2026-04-29 05:24 | 26.33679 | 36.08189 | 32895 ft | 569 kts | 118° |
| 2026-04-29 05:25 | 26.30563 | 36.16245 | 32896 ft | 569 kts | 118° |
| 2026-04-29 05:25 | 26.27425 | 36.24342 | 32903 ft | 569 kts | 118° |
| 2026-04-29 05:26 | 26.24284 | 36.32435 | 32908 ft | 568 kts | 119° |
| 2026-04-29 05:26 | 26.21145 | 36.40500 | 32913 ft | 567 kts | 119° |
| 2026-04-29 05:27 | 26.17938 | 36.48537 | 32913 ft | 564 kts | 124° |
| 2026-04-29 05:27 | 26.12410 | 36.60047 | 32896 ft | 561 kts | 125° |
| 2026-04-29 05:28 | 26.08646 | 36.67648 | 32901 ft | 561 kts | 126° |
| 2026-04-29 05:28 | 26.04878 | 36.75246 | 32874 ft | 561 kts | 126° |
| 2026-04-29 05:29 | 26.01139 | 36.82797 | 32898 ft | 560 kts | 126° |
| 2026-04-29 05:29 | 25.97379 | 36.90387 | 32900 ft | 560 kts | 126° |
| 2026-04-29 05:30 | 25.93614 | 36.97973 | 32912 ft | 560 kts | 126° |
| 2026-04-29 05:30 | 25.89849 | 37.05548 | 32921 ft | 560 kts | 126° |
| 2026-04-29 05:31 | 25.86107 | 37.13061 | 32922 ft | 559 kts | 126° |
| 2026-04-29 05:31 | 25.82335 | 37.20622 | 32925 ft | 559 kts | 126° |
| 2026-04-29 05:32 | 25.78569 | 37.28173 | 32920 ft | 559 kts | 126° |
| 2026-04-29 05:32 | 25.74809 | 37.35731 | 32924 ft | 559 kts | 126° |
| 2026-04-29 05:33 | 25.71041 | 37.43295 | 32916 ft | 560 kts | 126° |
| 2026-04-29 05:33 | 25.67267 | 37.50859 | 32920 ft | 561 kts | 126° |
| 2026-04-29 05:34 | 25.63493 | 37.58403 | 32923 ft | 562 kts | 126° |
| 2026-04-29 05:34 | 25.59694 | 37.65989 | 32926 ft | 562 kts | 126° |
| 2026-04-29 05:35 | 25.55896 | 37.73558 | 32923 ft | 562 kts | 126° |
| 2026-04-29 05:35 | 25.52093 | 37.81127 | 32924 ft | 562 kts | 126° |
| 2026-04-29 05:36 | 25.48286 | 37.88689 | 32926 ft | 562 kts | 127° |
| 2026-04-29 05:36 | 25.44471 | 37.96257 | 32914 ft | 562 kts | 127° |
| 2026-04-29 05:37 | 25.40650 | 38.03816 | 32920 ft | 563 kts | 127° |
| 2026-04-29 05:37 | 25.36855 | 38.11322 | 32920 ft | 563 kts | 127° |
| 2026-04-29 05:38 | 25.33037 | 38.18873 | 32923 ft | 562 kts | 127° |
| 2026-04-29 05:38 | 25.29206 | 38.26414 | 32921 ft | 562 kts | 127° |
| 2026-04-29 05:39 | 25.25363 | 38.33962 | 32921 ft | 563 kts | 127° |
| 2026-04-29 05:39 | 25.21542 | 38.41469 | 32920 ft | 563 kts | 127° |
| 2026-04-29 05:40 | 25.17693 | 38.49012 | 32920 ft | 563 kts | 127° |
| 2026-04-29 05:40 | 25.13848 | 38.56546 | 32920 ft | 563 kts | 127° |
| 2026-04-29 05:41 | 25.09996 | 38.64059 | 32904 ft | 562 kts | 127° |
| 2026-04-29 05:41 | 25.06171 | 38.71505 | 32921 ft | 561 kts | 127° |
| 2026-04-29 05:42 | 25.02311 | 38.79015 | 32920 ft | 562 kts | 127° |
| 2026-04-29 05:42 | 24.98449 | 38.86511 | 32920 ft | 561 kts | 127° |
| 2026-04-29 05:43 | 24.94592 | 38.93990 | 32917 ft | 560 kts | 127° |
| 2026-04-29 05:43 | 24.90735 | 39.01452 | 32917 ft | 559 kts | 127° |
| 2026-04-29 05:44 | 24.86877 | 39.08888 | 32918 ft | 559 kts | 127° |
| 2026-04-29 05:44 | 24.83036 | 39.16283 | 32913 ft | 558 kts | 127° |
| 2026-04-29 05:45 | 24.79184 | 39.23701 | 32914 ft | 557 kts | 127° |
| 2026-04-29 05:45 | 24.75330 | 39.31111 | 32915 ft | 557 kts | 127° |
| 2026-04-29 05:46 | 24.71470 | 39.38516 | 32910 ft | 557 kts | 127° |
| 2026-04-29 05:46 | 24.67639 | 39.45858 | 32915 ft | 556 kts | 127° |
| 2026-04-29 05:47 | 24.63781 | 39.53241 | 32918 ft | 556 kts | 127° |
| 2026-04-29 05:47 | 24.59914 | 39.60625 | 33031 ft | 558 kts | 127° |
| 2026-04-29 05:48 | 24.56732 | 39.66794 | 33017 ft | 560 kts | 124° |
| 2026-04-29 05:48 | 24.55226 | 39.70776 | 33018 ft | 570 kts | 113° |
| 2026-04-29 05:48 | 24.54337 | 39.75064 | 33026 ft | 577 kts | 104° |
| 2026-04-29 05:49 | 24.53308 | 39.83823 | 33010 ft | 580 kts | 100° |
| 2026-04-29 05:49 | 24.52530 | 39.92642 | 32980 ft | 580 kts | 99° |
| 2026-04-29 05:50 | 24.51745 | 40.01447 | 32936 ft | 579 kts | 100° |
| 2026-04-29 05:50 | 24.50908 | 40.10250 | 32909 ft | 578 kts | 100° |
| 2026-04-29 05:51 | 24.50046 | 40.19022 | 32910 ft | 578 kts | 100° |
| 2026-04-29 05:51 | 24.49176 | 40.27796 | 32902 ft | 578 kts | 100° |
| 2026-04-29 05:52 | 24.48303 | 40.36581 | 32909 ft | 578 kts | 100° |
| 2026-04-29 05:52 | 24.47428 | 40.45342 | 32907 ft | 577 kts | 100° |
| 2026-04-29 05:53 | 24.46555 | 40.54049 | 32905 ft | 577 kts | 100° |
| 2026-04-29 05:53 | 24.45672 | 40.62807 | 32909 ft | 576 kts | 100° |
| 2026-04-29 05:54 | 24.44786 | 40.71549 | 32916 ft | 576 kts | 101° |
| 2026-04-29 05:54 | 24.43888 | 40.80298 | 32908 ft | 577 kts | 101° |
| 2026-04-29 05:55 | 24.42983 | 40.89065 | 32911 ft | 577 kts | 101° |
| 2026-04-29 05:55 | 24.42082 | 40.97761 | 32912 ft | 576 kts | 101° |
| 2026-04-29 05:56 | 24.41173 | 41.06499 | 32912 ft | 576 kts | 101° |
| 2026-04-29 05:56 | 24.40264 | 41.15228 | 32903 ft | 576 kts | 101° |
| 2026-04-29 05:57 | 24.39346 | 41.23946 | 32915 ft | 575 kts | 101° |
| 2026-04-29 05:57 | 24.38422 | 41.32669 | 32913 ft | 575 kts | 101° |
| 2026-04-29 05:58 | 24.37496 | 41.41377 | 32920 ft | 574 kts | 101° |
| 2026-04-29 05:58 | 24.36571 | 41.50031 | 32919 ft | 574 kts | 101° |
| 2026-04-29 05:59 | 24.35636 | 41.58733 | 32912 ft | 574 kts | 101° |
| 2026-04-29 05:59 | 24.34697 | 41.67427 | 32919 ft | 573 kts | 101° |
| 2026-04-29 06:00 | 24.33754 | 41.76120 | 32927 ft | 573 kts | 101° |
| 2026-04-29 06:00 | 24.32415 | 41.84679 | 32920 ft | 566 kts | 109° |
| 2026-04-29 06:01 | 24.30344 | 41.93015 | 32910 ft | 566 kts | 111° |
| 2026-04-29 06:01 | 24.28147 | 42.01293 | 32905 ft | 565 kts | 112° |
| 2026-04-29 06:02 | 24.25952 | 42.09508 | 32908 ft | 565 kts | 111° |
| 2026-04-29 06:02 | 24.23756 | 42.17779 | 32907 ft | 565 kts | 111° |
| 2026-04-29 06:03 | 24.21566 | 42.26042 | 32911 ft | 564 kts | 111° |
| 2026-04-29 06:03 | 24.19377 | 42.34294 | 32911 ft | 564 kts | 111° |
| 2026-04-29 06:04 | 24.17184 | 42.42534 | 32905 ft | 563 kts | 111° |
| 2026-04-29 06:04 | 24.14990 | 42.50759 | 32911 ft | 562 kts | 111° |
| 2026-04-29 06:05 | 24.12792 | 42.58979 | 32915 ft | 562 kts | 111° |
| 2026-04-29 06:05 | 24.10603 | 42.67145 | 32913 ft | 561 kts | 111° |
| 2026-04-29 06:06 | 24.08404 | 42.75330 | 32920 ft | 561 kts | 111° |
| 2026-04-29 06:06 | 24.06201 | 42.83511 | 32916 ft | 560 kts | 111° |
| 2026-04-29 06:07 | 24.03992 | 42.91698 | 32916 ft | 560 kts | 111° |
| 2026-04-29 06:07 | 24.01777 | 42.99882 | 32914 ft | 560 kts | 111° |
| 2026-04-29 06:08 | 23.99560 | 43.08050 | 32914 ft | 559 kts | 111° |
| 2026-04-29 06:08 | 23.97344 | 43.16203 | 32911 ft | 558 kts | 111° |
| 2026-04-29 06:09 | 23.95126 | 43.24340 | 32901 ft | 558 kts | 111° |
| 2026-04-29 06:09 | 23.91102 | 43.39064 | 32907 ft | 556 kts | 111° |
| 2026-04-29 06:10 | 23.86689 | 43.55136 | 32900 ft | 555 kts | 111° |
| 2026-04-29 06:10 | 23.82233 | 43.71293 | 32897 ft | 553 kts | 111° |
| 2026-04-29 06:11 | 23.77847 | 43.87387 | 32890 ft | 555 kts | 107° |
| 2026-04-29 06:11 | 23.76176 | 44.04128 | 32883 ft | 558 kts | 97° |
| 2026-04-29 06:12 | 23.74977 | 44.20991 | 32886 ft | 559 kts | 98° |
| 2026-04-29 06:12 | 23.73694 | 44.37910 | 32882 ft | 558 kts | 98° |
| 2026-04-29 06:13 | 23.72393 | 44.54760 | 32879 ft | 556 kts | 98° |
| 2026-04-29 06:13 | 23.71076 | 44.71588 | 32876 ft | 554 kts | 98° |
| 2026-04-29 06:14 | 23.69748 | 44.88344 | 32870 ft | 554 kts | 98° |
| 2026-04-29 06:14 | 23.68400 | 45.05112 | 32858 ft | 555 kts | 98° |
| 2026-04-29 06:15 | 23.67045 | 45.21711 | 32870 ft | 552 kts | 98° |
| 2026-04-29 06:15 | 23.65666 | 45.38424 | 32867 ft | 552 kts | 98° |
| 2026-04-29 06:16 | 23.64265 | 45.55132 | 32843 ft | 553 kts | 98° |
| 2026-04-29 06:16 | 23.62857 | 45.71796 | 32850 ft | 551 kts | 98° |
| 2026-04-29 06:17 | 23.61422 | 45.88424 | 32843 ft | 551 kts | 98° |
| 2026-04-29 06:17 | 23.59972 | 46.05071 | 32843 ft | 551 kts | 98° |
| 2026-04-29 06:18 | 23.58513 | 46.21632 | 32844 ft | 551 kts | 98° |
| 2026-04-29 06:18 | 23.57027 | 46.38284 | 32855 ft | 551 kts | 98° |
| 2026-04-29 06:19 | 23.55527 | 46.54923 | 32858 ft | 551 kts | 98° |
| 2026-04-29 06:19 | 23.54010 | 46.71528 | 32849 ft | 549 kts | 98° |
| 2026-04-29 06:20 | 23.52475 | 46.88095 | 32838 ft | 549 kts | 98° |
| 2026-04-29 06:20 | 23.50931 | 47.04589 | 32822 ft | 550 kts | 98° |
| 2026-04-29 06:21 | 23.49360 | 47.21195 | 32820 ft | 549 kts | 98° |
| 2026-04-29 06:21 | 23.47781 | 47.37686 | 32812 ft | 550 kts | 98° |
| 2026-04-29 06:22 | 23.46173 | 47.54306 | 32806 ft | 551 kts | 98° |
| 2026-04-29 06:22 | 23.44547 | 47.70922 | 32813 ft | 551 kts | 98° |
| 2026-04-29 06:23 | 23.42907 | 47.87500 | 32802 ft | 549 kts | 98° |
| 2026-04-29 06:23 | 23.41252 | 48.04047 | 32791 ft | 549 kts | 98° |
| 2026-04-29 06:24 | 23.39580 | 48.20590 | 32803 ft | 550 kts | 98° |
| 2026-04-29 06:24 | 23.37937 | 48.36979 | 32783 ft | 547 kts | 96° |
| 2026-04-29 06:25 | 23.37355 | 48.53556 | 32789 ft | 548 kts | 94° |
| 2026-04-29 06:25 | 23.36746 | 48.70116 | 32781 ft | 547 kts | 94° |
| 2026-04-29 06:26 | 23.36037 | 48.86674 | 32772 ft | 547 kts | 94° |
| 2026-04-29 06:26 | 23.35321 | 49.03172 | 32779 ft | 545 kts | 94° |
| 2026-04-29 06:27 | 23.33343 | 49.19521 | 32767 ft | 543 kts | 101° |
| 2026-04-29 06:27 | 23.30987 | 49.35663 | 32770 ft | 544 kts | 101° |
| 2026-04-29 06:28 | 23.28621 | 49.51940 | 32767 ft | 542 kts | 101° |
| 2026-04-29 06:28 | 23.26255 | 49.68132 | 32768 ft | 542 kts | 101° |
| 2026-04-29 06:29 | 23.23871 | 49.84321 | 32771 ft | 542 kts | 101° |
| 2026-04-29 06:29 | 23.21469 | 50.00509 | 32762 ft | 542 kts | 101° |
| 2026-04-29 06:30 | 23.17844 | 50.24731 | 32774 ft | 540 kts | 101° |
| 2026-04-29 06:31 | 23.15405 | 50.40877 | 32773 ft | 540 kts | 101° |
| 2026-04-29 06:31 | 23.12966 | 50.56906 | 32765 ft | 540 kts | 101° |
| 2026-04-29 06:32 | 23.10922 | 50.70266 | 32770 ft | 538 kts | 101° |
| 2026-04-29 06:32 | 23.08450 | 50.86304 | 32777 ft | 538 kts | 101° |
| 2026-04-29 06:33 | 23.05962 | 51.02346 | 32770 ft | 539 kts | 101° |
| 2026-04-29 06:33 | 23.03458 | 51.18377 | 32770 ft | 537 kts | 101° |
| 2026-04-29 06:34 | 23.00949 | 51.34336 | 32773 ft | 536 kts | 101° |
| 2026-04-29 06:34 | 22.98414 | 51.50341 | 32770 ft | 537 kts | 101° |
| 2026-04-29 06:35 | 22.93840 | 51.78969 | 32770 ft | 537 kts | 101° |
| 2026-04-29 06:35 | 22.88704 | 52.10711 | 32770 ft | 537 kts | 101° |
| 2026-04-29 06:36 | 22.83473 | 52.42624 | 32766 ft | 535 kts | 101° |
| 2026-04-29 06:36 | 22.79329 | 52.74584 | 32784 ft | 535 kts | 98° |
| 2026-04-29 06:37 | 22.75421 | 53.06522 | 32784 ft | 533 kts | 98° |
| 2026-04-29 06:37 | 22.71478 | 53.38177 | 32787 ft | 534 kts | 98° |
| 2026-04-29 06:38 | 22.67450 | 53.69991 | 32786 ft | 531 kts | 98° |
| 2026-04-29 06:38 | 22.63375 | 54.01664 | 32785 ft | 531 kts | 98° |
| 2026-04-29 06:39 | 22.61579 | 54.28976 | 32786 ft | 529 kts | 74° |
| 2026-04-29 06:39 | 22.67485 | 54.43527 | 32785 ft | 528 kts | 62° |
| 2026-04-29 06:40 | 22.73918 | 54.57867 | 32785 ft | 529 kts | 63° |
| 2026-04-29 06:40 | 22.80254 | 54.72267 | 32781 ft | 530 kts | 63° |
| 2026-04-29 06:41 | 22.86589 | 54.86715 | 32780 ft | 530 kts | 63° |
| 2026-04-29 06:41 | 22.92873 | 55.01083 | 32778 ft | 530 kts | 63° |
| 2026-04-29 06:42 | 22.99231 | 55.15560 | 32779 ft | 530 kts | 60° |
| 2026-04-29 06:42 | 23.03667 | 55.21902 | 32384 ft | 532 kts | 39° |
| 2026-04-29 06:42 | 23.09868 | 55.26104 | 31902 ft | 524 kts | 17° |
| 2026-04-29 06:42 | 23.16806 | 55.28428 | 31214 ft | 517 kts | 11° |
| 2026-04-29 06:43 | 23.23763 | 55.30416 | 29160 ft | 518 kts | 9° |
| 2026-04-29 06:43 | 23.30711 | 55.32385 | 27584 ft | 506 kts | 11° |
| 2026-04-29 06:43 | 23.37350 | 55.34319 | 26185 ft | 494 kts | 11° |
| 2026-04-29 06:43 | 23.43921 | 55.36258 | 24799 ft | 485 kts | 11° |
| 2026-04-29 06:44 | 23.50390 | 55.38174 | 23380 ft | 479 kts | 11° |
| 2026-04-29 06:44 | 23.56803 | 55.40076 | 21797 ft | 472 kts | 12° |
| 2026-04-29 06:44 | 23.63077 | 55.41931 | 20356 ft | 463 kts | 12° |
| 2026-04-29 06:44 | 23.69245 | 55.43754 | 18913 ft | 455 kts | 12° |
| 2026-04-29 06:45 | 23.75294 | 55.45547 | 17372 ft | 445 kts | 13° |
| 2026-04-29 06:45 | 23.80993 | 55.47021 | 16571 ft | 411 kts | 2° |
| 2026-04-29 06:45 | 23.85198 | 55.46293 | 16349 ft | 358 kts | 331° |
| 2026-04-29 06:45 | 23.88386 | 55.43022 | 16068 ft | 287 kts | 295° |
| 2026-04-29 06:46 | 23.89569 | 55.38900 | 15835 ft | 288 kts | 285° |
| 2026-04-29 06:46 | 23.90979 | 55.34810 | 15380 ft | 287 kts | 290° |
| 2026-04-29 06:46 | 23.92522 | 55.30845 | 14734 ft | 287 kts | 292° |
| 2026-04-29 06:46 | 23.94252 | 55.27058 | 14533 ft | 308 kts | 296° |
| 2026-04-29 06:47 | 23.95249 | 55.24978 | 14271 ft | 308 kts | 296° |
| 2026-04-29 06:47 | 23.96246 | 55.22888 | 14097 ft | 310 kts | 296° |
| 2026-04-29 06:47 | 23.97238 | 55.20798 | 14009 ft | 309 kts | 296° |
| 2026-04-29 06:47 | 23.98222 | 55.18719 | 13866 ft | 307 kts | 296° |
| 2026-04-29 06:48 | 23.99203 | 55.16642 | 13691 ft | 307 kts | 296° |
| 2026-04-29 06:48 | 24.00179 | 55.14572 | 13496 ft | 306 kts | 296° |
| 2026-04-29 06:48 | 24.01154 | 55.12504 | 13322 ft | 305 kts | 296° |
| 2026-04-29 06:48 | 24.02160 | 55.10460 | 13107 ft | 304 kts | 301° |
| 2026-04-29 06:49 | 24.03392 | 55.08622 | 12949 ft | 303 kts | 308° |
| 2026-04-29 06:49 | 24.04738 | 55.06844 | 12770 ft | 303 kts | 309° |
| 2026-04-29 06:49 | 24.06089 | 55.05081 | 12584 ft | 302 kts | 309° |
| 2026-04-29 06:49 | 24.07434 | 55.03321 | 12411 ft | 301 kts | 308° |
| 2026-04-29 06:50 | 24.08773 | 55.01562 | 12234 ft | 300 kts | 308° |
| 2026-04-29 06:50 | 24.10106 | 54.99808 | 12046 ft | 299 kts | 308° |
| 2026-04-29 06:50 | 24.11434 | 54.98059 | 11884 ft | 298 kts | 308° |
| 2026-04-29 06:50 | 24.12754 | 54.96313 | 11705 ft | 298 kts | 308° |
| 2026-04-29 06:51 | 24.14034 | 54.94534 | 11538 ft | 296 kts | 307° |
| 2026-04-29 06:51 | 24.15297 | 54.92746 | 11352 ft | 295 kts | 307° |
| 2026-04-29 06:51 | 24.16540 | 54.90990 | 11180 ft | 294 kts | 307° |
| 2026-04-29 06:51 | 24.17797 | 54.89221 | 11013 ft | 294 kts | 307° |
| 2026-04-29 06:52 | 24.19054 | 54.87455 | 10849 ft | 293 kts | 307° |
| 2026-04-29 06:52 | 24.20307 | 54.85696 | 10670 ft | 292 kts | 307° |
| 2026-04-29 06:52 | 24.21559 | 54.83941 | 10497 ft | 291 kts | 307° |
| 2026-04-29 06:52 | 24.22803 | 54.82197 | 10324 ft | 290 kts | 307° |
| 2026-04-29 06:53 | 24.24049 | 54.80450 | 10157 ft | 290 kts | 307° |
| 2026-04-29 06:53 | 24.25288 | 54.78712 | 9989 ft | 289 kts | 307° |
| 2026-04-29 06:53 | 24.26526 | 54.76975 | 9819 ft | 288 kts | 307° |
| 2026-04-29 06:53 | 24.27758 | 54.75246 | 9650 ft | 287 kts | 307° |
| 2026-04-29 06:54 | 24.28969 | 54.73545 | 9468 ft | 287 kts | 307° |
| 2026-04-29 06:54 | 24.30197 | 54.71821 | 9309 ft | 287 kts | 307° |
| 2026-04-29 06:54 | 24.31424 | 54.70098 | 9137 ft | 286 kts | 307° |
| 2026-04-29 06:54 | 24.32647 | 54.68379 | 8972 ft | 286 kts | 307° |
| 2026-04-29 06:55 | 24.33872 | 54.66665 | 8879 ft | 285 kts | 307° |
| 2026-04-29 06:55 | 24.35091 | 54.64948 | 8761 ft | 285 kts | 307° |
| 2026-04-29 06:55 | 24.36308 | 54.63233 | 8315 ft | 284 kts | 307° |
| 2026-04-29 06:55 | 24.37515 | 54.61533 | 8023 ft | 282 kts | 307° |
| 2026-04-29 06:56 | 24.38726 | 54.59827 | 7984 ft | 283 kts | 307° |
| 2026-04-29 06:56 | 24.39935 | 54.58123 | 8002 ft | 282 kts | 307° |
| 2026-04-29 06:56 | 24.41127 | 54.56443 | 7987 ft | 282 kts | 307° |
| 2026-04-29 06:56 | 24.42333 | 54.54744 | 7988 ft | 282 kts | 307° |
| 2026-04-29 06:57 | 24.43536 | 54.53047 | 7889 ft | 276 kts | 307° |
| 2026-04-29 06:57 | 24.44693 | 54.51430 | 7387 ft | 262 kts | 307° |
| 2026-04-29 06:57 | 24.45776 | 54.49908 | 7106 ft | 244 kts | 306° |
| 2026-04-29 06:57 | 24.46788 | 54.48482 | 6770 ft | 230 kts | 306° |
| 2026-04-29 06:58 | 24.47757 | 54.47120 | 6274 ft | 224 kts | 306° |
| 2026-04-29 06:58 | 24.48700 | 54.45790 | 5731 ft | 222 kts | 307° |
| 2026-04-29 06:58 | 24.49652 | 54.44445 | 5112 ft | 223 kts | 308° |
| 2026-04-29 06:58 | 24.50599 | 54.43105 | 4581 ft | 220 kts | 308° |
| 2026-04-29 06:59 | 24.51536 | 54.41785 | 4004 ft | 218 kts | 309° |
| 2026-04-29 06:59 | 24.52495 | 54.40511 | 3452 ft | 214 kts | 316° |
| 2026-04-29 06:59 | 24.53692 | 54.39586 | 3012 ft | 210 kts | 337° |
| 2026-04-29 06:59 | 24.55104 | 54.39316 | 2581 ft | 206 kts | 7° |
| 2026-04-29 07:00 | 24.56345 | 54.39989 | 2183 ft | 205 kts | 45° |
| 2026-04-29 07:00 | 24.57105 | 54.41316 | 2008 ft | 207 kts | 62° |
| 2026-04-29 07:00 | 24.57729 | 54.42740 | 1982 ft | 207 kts | 63° |
| 2026-04-29 07:00 | 24.58356 | 54.44157 | 1985 ft | 207 kts | 62° |
| 2026-04-29 07:01 | 24.58740 | 54.45661 | 1985 ft | 203 kts | 85° |
| 2026-04-29 07:01 | 24.58355 | 54.47135 | 1985 ft | 205 kts | 118° |
| 2026-04-29 07:01 | 24.57471 | 54.48374 | 1980 ft | 206 kts | 129° |
| 2026-04-29 07:01 | 24.56549 | 54.49575 | 1985 ft | 205 kts | 125° |
| 2026-04-29 07:02 | 24.55682 | 54.50823 | 1977 ft | 201 kts | 125° |
| 2026-04-29 07:02 | 24.54854 | 54.52005 | 1978 ft | 195 kts | 124° |
| 2026-04-29 07:02 | 24.54028 | 54.53182 | 1999 ft | 193 kts | 124° |
| 2026-04-29 07:02 | 24.53212 | 54.54337 | 1982 ft | 186 kts | 125° |
| 2026-04-29 07:03 | 24.52454 | 54.55408 | 1873 ft | 170 kts | 125° |
| 2026-04-29 07:03 | 24.51763 | 54.56387 | 1669 ft | 155 kts | 124° |
| 2026-04-29 07:03 | 24.51127 | 54.57288 | 1465 ft | 143 kts | 124° |
| 2026-04-29 07:03 | 24.50542 | 54.58119 | 1295 ft | 134 kts | 125° |
| 2026-04-29 07:04 | 24.49977 | 54.58920 | 1144 ft | 132 kts | 125° |
| 2026-04-29 07:04 | 24.49426 | 54.59700 | 966 ft | 130 kts | 123° |
| 2026-04-29 07:04 | 24.48869 | 54.60488 | 827 ft | 132 kts | 124° |
| 2026-04-29 07:04 | 24.48310 | 54.61283 | 672 ft | 132 kts | 125° |
| 2026-04-29 07:05 | 24.47738 | 54.62084 | 517 ft | 133 kts | 124° |
| 2026-04-29 07:05 | 24.47172 | 54.62880 | 328 ft | 133 kts | 124° |
| 2026-04-29 07:05 | 24.46607 | 54.63684 | 152 ft | 132 kts | 123° |
| 2026-04-29 07:05 | 24.46056 | 54.64469 | 84 ft | 122 kts | 126° |
| 2026-04-29 07:06 | 24.45607 | 54.65102 | 68 ft | 90 kts | 127° |
| 2026-04-29 07:06 | 24.45271 | 54.65508 | 88 ft | 33 kts | 148° |
| 2026-04-29 07:06 | 24.45176 | 54.65562 | 88 ft | 14 kts | 155° |
| 2026-04-29 07:06 | 24.45089 | 54.65604 | 86 ft | 10 kts | 160° |
| 2026-04-29 07:07 | 24.45012 | 54.65641 | 87 ft | 14 kts | 142° |
| 2026-04-29 07:07 | 24.44918 | 54.65668 | 88 ft | 17 kts | 203° |
| 2026-04-29 07:07 | 24.44811 | 54.65590 | 89 ft | 20 kts | 217° |
| 2026-04-29 07:07 | 24.44686 | 54.65484 | 88 ft | 25 kts | 217° |
| 2026-04-29 07:08 | 24.44538 | 54.65358 | 88 ft | 29 kts | 218° |
| 2026-04-29 07:08 | 24.44442 | 54.65250 | 87 ft | 15 kts | 263° |
| 2026-04-29 07:08 | 24.44485 | 54.65147 | 88 ft | 17 kts | 306° |
| 2026-04-29 07:08 | 24.44566 | 54.65032 | 87 ft | 21 kts | 308° |
| 2026-04-29 07:09 | 24.44663 | 54.64895 | 88 ft | 24 kts | 308° |
| 2026-04-29 07:09 | 24.44758 | 54.64760 | 85 ft | 20 kts | 308° |
| 2026-04-29 07:09 | 24.44820 | 54.64669 | 87 ft | 13 kts | 300° |
| 2026-04-29 07:09 | 24.44873 | 54.64584 | 84 ft | 11 kts | 327° |
| 2026-04-29 07:10 | 24.44953 | 54.64570 | 84 ft | 4 kts | 8° |
| 2026-04-29 07:10 | 24.44989 | 54.64577 | 86 ft | 0 kts | 13° |
| 2026-04-29 07:10 | 24.45009 | 54.64583 | 85 ft | 6 kts | 13° |
| 2026-04-29 07:10 | 24.45018 | 54.64585 | 85 ft | 0 kts | 13° |